CheckWX is a tool to help pilots better visualize weather data.  It is not intended as a substitute for an official pre-flight weather briefing.

13:43:32 UTC

VIDP TAF
Indira Gandhi International Airport
New Delhi, India
TAF VIDP 251100Z 2512/2618 09008G18KT 3500 -RA SCT030 BKN090 BECMG 2512/2516 1500 TSRA SCT025 FEW035CB OVC080 BECMG 2520/2522 05006KT 2000 BR FEW030 SCT100 BECMG 2600/2604 FEW035CB BECMG 2605/2607 14008KT 3500 HZ -RA SCT030 BKN090 BECMG 2608/2612 FEW035CB BECMG 2615/2617 VRB02KT 2500 HZ BR

Aug-25@
12:00 UTC

Aug-25 @ 12:00 UTC

Aug-26@
18:00 UTC

Aug-26 @ 18:00 UTC

TAF VIDP 251100Z 2512/2618 09008G18KT 3500 -RA SCT030 BKN090
Wind
  • 090° at 8 KTS
  • {Gusting to 18 KTS
Conditions
Light Rain
Cloud Levels
  • Scattered at 3,000' AGL
  • Broken at 9,000' AGL

Aug-25@
12:00 UTC

Aug-25 @ 12:00 UTC

Aug-25@
20:00 UTC

Aug-25 @ 20:00 UTC

BECMG 2512/2516 1500 TSRA SCT025 FEW035CB OVC080

Becoming

Becoming Conditions expected by Sun, Aug 25, 2019 @ 16:00 UTC

Wind
  • 090° at 8 KTS
  • {Gusting to 18 KTS
Conditions
Thunderstorm, Rain
Cloud Levels
  • Scattered at 2,500' AGL
  • Few at 3,500' AGL
  • Overcast at 8,000' AGL

Aug-25@
20:00 UTC

Aug-25 @ 20:00 UTC

Aug-26@
00:00 UTC

Aug-26 @ 00:00 UTC

BECMG 2520/2522 05006KT 2000 BR FEW030 SCT100

Becoming

Becoming Conditions expected by Sun, Aug 25, 2019 @ 22:00 UTC

Wind
  • 050° at 6 KTS
Conditions
Mist
Cloud Levels
  • Few at 3,000' AGL
  • Scattered at 10,000' AGL

Aug-26@
00:00 UTC

Aug-26 @ 00:00 UTC

Aug-26@
05:00 UTC

Aug-26 @ 05:00 UTC

BECMG 2600/2604 FEW035CB

Becoming

Becoming Conditions expected by Mon, Aug 26, 2019 @ 04:00 UTC

Wind
  • 050° at 6 KTS
Conditions
Mist
Cloud Levels
  • Few at 3,500' AGL

Aug-26@
05:00 UTC

Aug-26 @ 05:00 UTC

Aug-26@
08:00 UTC

Aug-26 @ 08:00 UTC

BECMG 2605/2607 14008KT 3500 HZ -RA SCT030 BKN090

Becoming

Becoming Conditions expected by Mon, Aug 26, 2019 @ 07:00 UTC

Wind
  • 140° at 8 KTS
Conditions
Haze, Light Rain
Cloud Levels
  • Scattered at 3,000' AGL
  • Broken at 9,000' AGL

Aug-26@
08:00 UTC

Aug-26 @ 08:00 UTC

Aug-26@
15:00 UTC

Aug-26 @ 15:00 UTC

BECMG 2608/2612 FEW035CB

Becoming

Becoming Conditions expected by Mon, Aug 26, 2019 @ 12:00 UTC

Wind
  • 140° at 8 KTS
Conditions
Haze, Light Rain
Cloud Levels
  • Few at 3,500' AGL

Aug-26@
15:00 UTC

Aug-26 @ 15:00 UTC

Aug-26@
18:00 UTC

Aug-26 @ 18:00 UTC

BECMG 2615/2617 VRB02KT 2500 HZ BR

Becoming

Becoming Conditions expected by Mon, Aug 26, 2019 @ 17:00 UTC

Wind
  • Variable at 2 KTS
Conditions
Haze, Mist
Cloud Levels
  • Few at 3,500' AGL